createdAt,value
2022-10-07T00:01:49.752Z,10.40
2022-10-07T00:07:11.030Z,10.49
2022-10-07T00:12:31.920Z,10.61
2022-10-07T00:17:53.437Z,10.52
2022-10-07T00:23:14.270Z,10.60
2022-10-07T00:28:36.461Z,10.55
2022-10-07T00:33:58.826Z,10.39
2022-10-07T00:39:19.413Z,10.60
2022-10-07T00:44:43.543Z,10.56
2022-10-07T00:50:11.039Z,10.47
2022-10-07T00:55:32.494Z,10.52
2022-10-07T01:00:53.891Z,10.55
2022-10-07T01:06:15.277Z,10.49
2022-10-07T01:11:50.798Z,10.49
2022-10-07T01:17:28.610Z,10.40
2022-10-07T01:23:16.501Z,10.56
2022-10-07T01:28:43.408Z,10.39
2022-10-07T01:34:08.408Z,10.49
2022-10-07T01:39:34.557Z,10.27
2022-10-07T01:44:58.857Z,10.33
2022-10-07T01:50:24.085Z,10.32
2022-10-07T01:55:54.022Z,10.15
2022-10-07T02:01:50.594Z,10.23
2022-10-07T02:07:11.425Z,10.24
2022-10-07T02:12:40.942Z,10.05
2022-10-07T02:18:08.412Z,10.10
2022-10-07T02:23:29.675Z,10.05
2022-10-07T02:28:53.642Z,10.03
2022-10-07T02:34:20.304Z,10.16
2022-10-07T02:39:43.683Z,10.19
2022-10-07T02:45:17.460Z,10.18
2022-10-07T02:50:45.385Z,10.19
2022-10-07T02:56:07.555Z,10.05
2022-10-07T03:01:33.018Z,10.06
2022-10-07T03:06:55.016Z,10.14
2022-10-07T03:12:18.285Z,10.33
2022-10-07T03:17:40.848Z,10.44
2022-10-07T03:23:02.227Z,10.51
2022-10-07T03:28:25.630Z,10.43
2022-10-07T03:33:47.708Z,10.45
2022-10-07T03:39:08.512Z,10.36
2022-10-07T03:44:30.714Z,10.38
2022-10-07T03:49:51.962Z,10.45
2022-10-07T03:55:12.581Z,10.50
2022-10-07T04:00:34.553Z,10.56
2022-10-07T04:05:59.774Z,10.64
2022-10-07T04:11:24.384Z,10.72
2022-10-07T04:16:48.335Z,10.78
2022-10-07T04:22:09.965Z,10.75
2022-10-07T04:27:50.761Z,10.88
2022-10-07T04:33:12.501Z,10.87
2022-10-07T04:38:33.850Z,10.84
2022-10-07T04:43:57.966Z,10.85
2022-10-07T04:49:21.969Z,10.96
2022-10-07T04:54:42.691Z,11.00
2022-10-07T05:00:05.577Z,10.82
2022-10-07T05:05:28.034Z,10.58
2022-10-07T05:10:55.269Z,10.63
2022-10-07T05:16:16.519Z,10.70
2022-10-07T05:21:37.811Z,10.87
2022-10-07T05:26:59.160Z,10.98
2022-10-07T05:32:21.423Z,11.11
2022-10-07T05:37:44.587Z,11.16
2022-10-07T05:43:10.822Z,11.20
2022-10-07T05:48:38.089Z,11.22
2022-10-07T05:54:01.303Z,11.28
2022-10-07T05:59:28.764Z,11.40
2022-10-07T06:04:49.469Z,11.46
2022-10-07T06:10:29.974Z,11.56
2022-10-07T06:15:51.125Z,11.55
2022-10-07T06:21:12.781Z,11.55
2022-10-07T06:26:34.633Z,11.54
2022-10-07T06:31:56.659Z,11.71
2022-10-07T06:37:17.783Z,11.73
2022-10-07T06:42:38.637Z,11.78
2022-10-07T06:48:23.157Z,11.86
2022-10-07T06:53:45.360Z,11.98
2022-10-07T06:59:07.802Z,12.20
2022-10-07T07:05:04.622Z,12.35
2022-10-07T07:10:25.590Z,12.38
2022-10-07T07:16:00.209Z,12.52
2022-10-07T07:21:26.196Z,12.65
2022-10-07T07:26:47.501Z,12.79
2022-10-07T07:32:09.013Z,12.83
2022-10-07T07:37:34.070Z,12.99
2022-10-07T07:42:55.752Z,13.06
2022-10-07T07:48:16.702Z,13.21
2022-10-07T07:53:38.135Z,13.31
2022-10-07T07:59:00.469Z,13.44
2022-10-07T08:04:22.898Z,13.52
2022-10-07T08:09:44.064Z,13.72
2022-10-07T08:15:05.606Z,13.76
2022-10-07T08:20:26.986Z,13.95
2022-10-07T08:25:53.755Z,14.05
2022-10-07T08:31:18.086Z,14.09
2022-10-07T08:36:39.756Z,14.06
2022-10-07T08:42:15.179Z,14.14
2022-10-07T08:47:44.253Z,14.11
2022-10-07T08:53:08.839Z,14.09
2022-10-07T08:58:38.446Z,14.06
2022-10-07T09:04:21.139Z,14.08
2022-10-07T09:10:09.660Z,14.20
2022-10-07T09:15:47.501Z,14.25
2022-10-07T09:21:20.046Z,14.36
2022-10-07T09:26:41.557Z,14.42
2022-10-07T09:32:02.621Z,14.43
2022-10-07T09:37:26.677Z,14.52
2022-10-07T09:42:49.744Z,14.65
2022-10-07T09:48:20.974Z,14.79
2022-10-07T09:54:04.069Z,14.79
2022-10-07T09:59:36.183Z,15.01
2022-10-07T10:04:57.581Z,15.08
2022-10-07T10:10:23.474Z,15.26
2022-10-07T10:15:44.982Z,15.31
2022-10-07T10:21:22.670Z,15.32
2022-10-07T10:27:21.860Z,15.44
2022-10-07T10:32:50.000Z,15.44
2022-10-07T10:38:28.388Z,15.40
2022-10-07T10:43:59.092Z,15.44
2022-10-07T10:49:28.909Z,15.50
2022-10-07T10:54:49.778Z,15.57
2022-10-07T11:00:16.034Z,15.75
2022-10-07T11:05:42.611Z,15.81
2022-10-07T11:11:09.068Z,15.84
2022-10-07T11:16:51.271Z,15.81
2022-10-07T11:22:32.922Z,15.94
2022-10-07T11:28:01.422Z,15.99
2022-10-07T11:33:34.032Z,15.99
2022-10-07T11:38:54.792Z,16.04
2022-10-07T11:44:28.992Z,15.99
2022-10-07T11:49:57.850Z,16.02
2022-10-07T11:55:34.340Z,16.11
2022-10-07T12:01:26.399Z,16.15
2022-10-07T12:07:25.120Z,16.22
2022-10-07T12:12:46.694Z,16.19
2022-10-07T12:18:07.632Z,16.28
2022-10-07T12:23:37.535Z,16.33
2022-10-07T12:29:04.681Z,16.44
2022-10-07T12:34:36.138Z,16.55
2022-10-07T12:39:59.042Z,16.71
2022-10-07T12:45:22.794Z,16.76
2022-10-07T12:50:45.816Z,16.75
2022-10-07T12:56:06.748Z,16.68
2022-10-07T13:01:52.512Z,16.67
2022-10-07T13:07:46.158Z,16.65
2022-10-07T13:13:39.908Z,16.66
2022-10-07T13:19:15.270Z,16.56
2022-10-07T13:24:40.532Z,16.48
2022-10-07T13:30:04.781Z,16.39
2022-10-07T13:35:32.492Z,16.45
2022-10-07T13:41:24.902Z,16.57
2022-10-07T13:47:01.278Z,16.48
2022-10-07T13:52:41.720Z,16.40
2022-10-07T13:58:05.443Z,16.35
2022-10-07T14:03:26.095Z,16.36
2022-10-07T14:08:51.404Z,16.38
2022-10-07T14:14:19.662Z,16.30
2022-10-07T14:19:41.146Z,16.28
2022-10-07T14:25:04.312Z,16.23
2022-10-07T14:30:28.273Z,16.23
2022-10-07T14:35:51.355Z,16.28
2022-10-07T14:41:13.129Z,16.34
2022-10-07T14:46:34.101Z,16.34
2022-10-07T14:51:54.653Z,16.35
2022-10-07T14:57:15.371Z,16.36
2022-10-07T15:02:35.791Z,16.36
2022-10-07T15:07:56.518Z,16.32
2022-10-07T15:13:17.178Z,16.30
2022-10-07T15:18:42.360Z,16.28
2022-10-07T15:24:04.171Z,16.25
2022-10-07T15:29:24.812Z,16.22
2022-10-07T15:34:46.041Z,16.09
2022-10-07T15:40:07.718Z,15.98
2022-10-07T15:45:28.582Z,15.93
2022-10-07T15:50:51.497Z,15.87
2022-10-07T15:56:12.386Z,15.85
2022-10-07T16:01:33.133Z,15.77
2022-10-07T16:06:53.636Z,15.85
2022-10-07T16:12:14.441Z,15.57
2022-10-07T16:17:35.663Z,15.32
2022-10-07T16:22:56.567Z,15.43
2022-10-07T16:28:35.726Z,15.52
2022-10-07T16:33:56.686Z,15.41
2022-10-07T16:39:20.046Z,15.47
2022-10-07T16:44:40.939Z,15.45
2022-10-07T16:50:01.545Z,15.34
2022-10-07T16:55:22.946Z,15.33
2022-10-07T17:00:44.033Z,15.34
2022-10-07T17:06:05.001Z,15.44
2022-10-07T17:11:28.749Z,15.52
2022-10-07T17:16:55.999Z,15.57
2022-10-07T17:22:17.276Z,15.53
2022-10-07T17:27:37.958Z,15.44
2022-10-07T17:32:58.758Z,15.21
2022-10-07T17:38:19.289Z,14.82
2022-10-07T17:43:41.495Z,14.63
2022-10-07T17:49:02.855Z,14.52
2022-10-07T17:54:24.095Z,14.51
2022-10-07T17:59:44.968Z,14.39
2022-10-07T18:05:07.225Z,14.56
2022-10-07T18:10:28.020Z,14.52
2022-10-07T18:15:57.822Z,14.40
2022-10-07T18:21:18.390Z,14.41
2022-10-07T18:26:39.005Z,14.42
2022-10-07T18:31:59.972Z,14.27
2022-10-07T18:37:21.114Z,14.25
2022-10-07T18:42:42.061Z,14.33
2022-10-07T18:48:03.344Z,14.28
2022-10-07T18:53:24.206Z,14.20
2022-10-07T18:58:47.449Z,14.11
2022-10-07T19:04:09.749Z,14.05
2022-10-07T19:09:31.980Z,14.07
2022-10-07T19:14:54.379Z,14.02
2022-10-07T19:20:17.070Z,14.00
2022-10-07T19:25:47.556Z,13.87
2022-10-07T19:31:16.170Z,13.68
2022-10-07T19:36:42.443Z,13.65
2022-10-07T19:42:03.286Z,13.56
2022-10-07T19:47:25.096Z,13.52
2022-10-07T19:52:46.941Z,13.52
2022-10-07T19:58:07.552Z,13.60
2022-10-07T20:03:28.365Z,13.64
2022-10-07T20:08:48.860Z,13.64
2022-10-07T20:14:10.364Z,13.53
2022-10-07T20:19:31.398Z,13.56
2022-10-07T20:24:52.145Z,13.52
2022-10-07T20:30:17.832Z,13.53
2022-10-07T20:35:39.580Z,13.57
2022-10-07T20:41:19.394Z,13.49
2022-10-07T20:46:40.757Z,13.34
2022-10-07T20:52:07.184Z,13.13
2022-10-07T20:57:33.949Z,13.14
2022-10-07T21:02:55.038Z,13.09
2022-10-07T21:08:15.888Z,13.03
2022-10-07T21:13:36.433Z,12.91
2022-10-07T21:18:57.240Z,12.85
2022-10-07T21:24:18.734Z,12.87
2022-10-07T21:29:41.395Z,12.87
2022-10-07T21:35:02.632Z,12.76
2022-10-07T21:40:23.360Z,12.67
2022-10-07T21:45:44.222Z,12.73
2022-10-07T21:51:09.506Z,12.58
2022-10-07T21:56:32.318Z,12.66
2022-10-07T22:01:53.167Z,12.73
2022-10-07T22:07:32.335Z,12.76
2022-10-07T22:12:54.207Z,12.65
2022-10-07T22:18:15.585Z,12.72
2022-10-07T22:23:36.638Z,12.56
2022-10-07T22:28:57.695Z,12.48
2022-10-07T22:34:37.274Z,12.40
2022-10-07T22:39:57.815Z,12.35
2022-10-07T22:45:19.642Z,12.34
2022-10-07T22:50:40.628Z,12.42
2022-10-07T22:56:06.408Z,12.40
2022-10-07T23:01:31.499Z,12.22
2022-10-07T23:06:53.560Z,12.19
2022-10-07T23:12:14.518Z,12.04
2022-10-07T23:17:35.376Z,12.00
2022-10-07T23:22:56.018Z,11.99
2022-10-07T23:28:16.740Z,11.99
2022-10-07T23:33:38.266Z,11.90
2022-10-07T23:39:00.670Z,11.79
2022-10-07T23:44:23.098Z,11.82
2022-10-07T23:49:43.838Z,11.74
2022-10-07T23:55:05.226Z,11.76
